This is the latest recevied weather packets stored in our database for station/object HB9SZU-7. If no packets are shown the sender has not sent any weather packets the latest 10 day(s).
| Time | Temp. | Humidity | Pressure | Rain* | Wind** | Luminosity | Snow |
|---|---|---|---|---|---|---|---|
| 1777389709 | 12.78° C | 78% | 936.3 hPa | - | - | - | - |
| 1777385869 | 12.78° C | 78% | 936.4 hPa | - | - | - | - |
| 1777383949 | 13.33° C | 76% | 936.4 hPa | - | - | - | - |
| 1777381069 | 13.33° C | 77% | 936.6 hPa | - | - | - | - |
| 1777379149 | 12.78° C | 76% | 936.5 hPa | - | - | - | - |
| 1777376269 | 13.89° C | 69% | 936.9 hPa | - | - | - | - |
| 1777375309 | 13.89° C | 69% | 936.9 hPa | - | - | - | - |
| 1777374349 | 13.89° C | 69% | 936.9 hPa | - | - | - | - |
| 1777372429 | 14.44° C | 66% | 936.8 hPa | - | - | - | - |
| 1777371469 | 14.44° C | 65% | 936.7 hPa | - | - | - | - |
| 1777370509 | 14.44° C | 66% | 936.6 hPa | - | - | - | - |
| 1777368589 | 13.33° C | 71% | 936.4 hPa | - | - | - | - |
| 1777364749 | 13.33° C | 74% | 936.4 hPa | - | - | - | - |
| 1777363462 | 12.78° C | 78% | 936.3 hPa | - | - | - | - |
| 1777362502 | 12.78° C | 78% | 936.2 hPa | - | - | - | - |
| 1777361541 | 11.67° C | 77% | 936.4 hPa | - | - | - | - |
| 1777360582 | 11.67° C | 77% | 936.4 hPa | - | - | - | - |
| 1777359622 | 11.67° C | 77% | 936.4 hPa | - | - | - | - |
| 1777358662 | 11.67° C | 77% | 936.4 hPa | - | - | - | - |
| 1777357701 | 12.22° C | 77% | 936.4 hPa | - | - | - | - |
| 1777356742 | 11.67° C | 77% | 936.4 hPa | - | - | - | - |
| 1777355782 | 11.67° C | 76% | 936.3 hPa | - | - | - | - |
| 1777354821 | 11.67° C | 74% | 935.9 hPa | - | - | - | - |
| 1777353862 | 11.67° C | 74% | 935.9 hPa | - | - | - | - |
| 1777352901 | 11.67° C | 74% | 935.9 hPa | - | - | - | - |
* Rain since midnight (hover to see other rain measurements)
** Current wind speed in m/s (hover to see current wind gust speed)